Time;durP1;ratioP1;P1;durP2;ratioP2;P2;SDS_P1;SDS_P2;PMS_P1;PMS_P2;Temp;Humidity;BMP_temperature;BMP_pressure;BME280_temperature;BME280_humidity;BME280_pressure;Samples;Min_cycle;Max_cycle;Signal;HPM_P1;HPM_P2
2022/06/08 00:00:37;;;;;;;5.75;3.80;;;16.30;99.90;;;;;;4134430;28;20029;-65
2022/06/08 00:02:39;;;;;;;5.00;3.75;;;16.30;99.90;;;;;;4134748;28;20046;-66
2022/06/08 00:04:41;;;;;;;6.50;3.65;;;16.30;99.90;;;;;;4134089;28;20425;-65
2022/06/08 00:06:42;;;;;;;8.70;3.58;;;16.30;99.90;;;;;;4134200;28;20049;-66
2022/06/08 00:08:43;;;;;;;5.57;3.95;;;16.30;99.90;;;;;;4134394;28;20088;-64
2022/06/08 00:10:45;;;;;;;7.90;3.72;;;16.20;99.90;;;;;;4133547;28;20068;-64
2022/06/08 00:12:46;;;;;;;5.00;3.75;;;16.20;99.90;;;;;;4133684;28;20054;-65
2022/06/08 00:14:47;;;;;;;8.40;3.55;;;16.20;99.90;;;;;;4134899;28;20103;-66
2022/06/08 00:16:48;;;;;;;7.13;4.03;;;16.20;99.90;;;;;;4137093;28;20096;-65
2022/06/08 00:18:49;;;;;;;5.53;3.78;;;16.10;99.90;;;;;;4139540;28;20037;-65
2022/06/08 00:20:51;;;;;;;7.40;3.75;;;16.10;99.90;;;;;;4138737;28;20033;-64
2022/06/08 00:22:53;;;;;;;5.70;3.90;;;16.10;99.90;;;;;;4139499;28;20427;-65
2022/06/08 00:24:54;;;;;;;5.20;3.53;;;16.10;99.90;;;;;;4138880;28;20034;-64
2022/06/08 00:26:56;;;;;;;4.15;3.60;;;16.20;99.90;;;;;;4139497;28;20644;-65
2022/06/08 00:28:57;;;;;;;4.18;3.70;;;16.20;99.90;;;;;;4139357;28;20103;-65
2022/06/08 00:30:59;;;;;;;5.13;4.00;;;16.10;99.90;;;;;;4139436;28;20037;-66
2022/06/08 00:33:00;;;;;;;4.80;3.65;;;16.10;99.90;;;;;;4139021;28;20064;-66
2022/06/08 00:35:02;;;;;;;8.32;3.72;;;16.10;99.90;;;;;;4138777;28;20042;-64
2022/06/08 00:37:03;;;;;;;6.55;3.35;;;16.10;99.90;;;;;;4140693;28;20033;-65
2022/06/08 00:39:05;;;;;;;5.40;3.55;;;16.10;99.90;;;;;;4142709;28;20449;-64
2022/06/08 00:41:15;;;;;;;6.85;4.30;;;16.10;99.90;;;;;;4142927;28;20437;-65
2022/06/08 00:43:17;;;;;;;5.18;3.88;;;16.10;99.90;;;;;;4141960;28;20372;-64
2022/06/08 00:45:22;;;;;;;4.07;3.40;;;16.10;99.90;;;;;;4142777;28;20490;-65
2022/06/08 00:47:30;;;;;;;10.35;4.10;;;16.10;99.90;;;;;;4141112;28;20042;-64
2022/06/08 00:49:47;;;;;;;3.70;3.10;;;16.10;99.90;;;;;;4142844;28;20026;-64
2022/06/08 00:51:49;;;;;;;7.03;3.58;;;16.10;99.90;;;;;;4142071;28;20050;-65
2022/06/08 00:53:59;;;;;;;7.60;3.60;;;16.10;99.90;;;;;;4143115;28;20078;-65
2022/06/08 00:56:05;;;;;;;7.30;3.60;;;16.20;99.90;;;;;;4141941;28;20551;-65
2022/06/08 00:58:23;;;;;;;4.95;3.35;;;16.10;99.90;;;;;;4142937;28;21080;-65
2022/06/08 01:00:31;;;;;;;3.65;2.97;;;16.10;99.90;;;;;;4141622;28;20029;-64
2022/06/08 01:02:32;;;;;;;6.40;2.95;;;16.20;99.90;;;;;;4140478;28;20042;-65
2022/06/08 01:04:34;;;;;;;3.75;2.63;;;16.20;99.90;;;;;;4141822;28;20022;-64
2022/06/08 01:06:35;;;;;;;6.05;2.92;;;16.20;99.90;;;;;;4142850;28;20034;-65
2022/06/08 01:08:44;;;;;;;9.43;3.40;;;16.20;99.90;;;;;;4141504;28;20037;-65
2022/06/08 01:10:49;;;;;;;4.88;2.65;;;16.20;99.90;;;;;;4142213;28;20034;-65
2022/06/08 01:12:50;;;;;;;4.20;2.40;;;16.30;99.90;;;;;;4141566;28;20065;-65
2022/06/08 01:14:51;;;;;;;2.80;2.53;;;16.30;99.90;;;;;;4141956;28;20035;-67
2022/06/08 01:16:58;;;;;;;4.88;2.35;;;16.30;99.90;;;;;;4141671;28;20103;-64
2022/06/08 01:19:04;;;;;;;4.78;3.28;;;16.30;99.90;;;;;;4142061;28;20033;-64
2022/06/08 01:21:20;;;;;;;3.53;2.67;;;16.30;99.90;;;;;;4141526;28;20038;-65
2022/06/08 01:23:23;;;;;;;6.75;2.78;;;16.20;99.90;;;;;;4142344;28;20104;-65
2022/06/08 01:25:28;;;;;;;6.43;2.42;;;16.20;99.90;;;;;;4141381;28;20095;-65
2022/06/08 01:27:33;;;;;;;4.68;2.50;;;16.20;99.90;;;;;;4141094;28;20030;-65
2022/06/08 01:29:52;;;;;;;6.00;2.67;;;16.20;99.90;;;;;;4140857;28;20030;-64
2022/06/08 01:32:05;;;;;;;3.97;2.40;;;16.20;99.90;;;;;;4141622;28;20577;-65
2022/06/08 01:34:06;;;;;;;4.25;2.47;;;16.20;99.90;;;;;;4141100;28;20430;-65
2022/06/08 01:36:35;;;;;;;4.85;2.50;;;16.20;99.90;;;;;;4142510;28;20037;-65
2022/06/08 01:38:45;;;;;;;5.90;2.85;;;16.20;99.90;;;;;;4141495;28;20546;-65
2022/06/08 01:40:55;;;;;;;4.57;2.45;;;16.20;99.90;;;;;;4140695;28;20034;-64
2022/06/08 01:43:11;;;;;;;2.72;2.30;;;16.10;99.90;;;;;;4141180;28;20037;-65
2022/06/08 01:45:42;;;;;;;5.00;2.53;;;16.10;99.90;;;;;;4141783;28;20379;-65
2022/06/08 01:48:26;;;;;;;6.25;2.92;;;16.00;99.90;;;;;;4141040;28;20061;-64
2022/06/08 01:51:04;;;;;;;3.00;2.70;;;15.80;99.90;;;;;;4142470;28;20068;-64
2022/06/08 01:53:14;;;;;;;4.97;2.95;;;15.70;99.90;;;;;;4141112;28;20522;-64
2022/06/08 01:55:33;;;;;;;6.25;3.25;;;15.70;99.90;;;;;;4141776;28;20103;-65
2022/06/08 01:58:05;;;;;;;6.47;3.25;;;15.60;99.90;;;;;;4140545;28;20143;-65
2022/06/08 02:00:28;;;;;;;9.02;2.92;;;15.60;99.90;;;;;;4141009;28;20060;-65
2022/06/08 02:02:48;;;;;;;5.38;2.80;;;15.60;99.90;;;;;;4141278;28;20851;-64
2022/06/08 02:04:56;;;;;;;5.80;3.17;;;15.60;99.90;;;;;;4139628;28;20042;-65
2022/06/08 02:07:09;;;;;;;4.35;2.80;;;15.60;99.90;;;;;;4141821;28;20037;-66
2022/06/08 02:09:17;;;;;;;3.88;2.78;;;15.60;99.90;;;;;;4143523;28;20470;-66
2022/06/08 02:11:38;;;;;;;8.95;3.60;;;15.60;99.90;;;;;;4143265;28;20042;-65
2022/06/08 02:13:49;;;;;;;4.47;2.90;;;15.60;99.90;;;;;;4140702;28;20100;-67
2022/06/08 02:15:57;;;;;;;3.30;2.88;;;15.60;99.90;;;;;;4141370;28;20026;-64
2022/06/08 02:18:04;;;;;;;4.53;3.60;;;15.60;99.90;;;;;;4139934;28;20096;-65
2022/06/08 02:20:36;;;;;;;5.55;3.30;;;15.60;99.90;;;;;;4140777;28;20092;-65
2022/06/08 02:22:46;;;;;;;6.10;3.15;;;15.60;99.90;;;;;;4140720;28;20037;-65
2022/06/08 02:25:10;;;;;;;4.22;3.20;;;15.60;99.90;;;;;;4141400;28;20038;-67
2022/06/08 02:27:29;;;;;;;4.20;3.15;;;15.70;99.90;;;;;;4138996;28;20033;-67
2022/06/08 02:29:53;;;;;;;5.15;2.72;;;15.70;99.90;;;;;;4141139;28;20030;-67
2022/06/08 02:32:00;;;;;;;4.03;2.88;;;15.70;99.90;;;;;;4140256;28;20030;-65
2022/06/08 02:34:28;;;;;;;8.73;4.03;;;15.80;99.90;;;;;;4140794;28;20042;-65
2022/06/08 02:36:37;;;;;;;10.20;3.70;;;15.80;99.90;;;;;;4140696;28;20202;-64
2022/06/08 02:38:41;;;;;;;4.80;3.10;;;15.70;99.90;;;;;;4133324;28;20054;-65
2022/06/08 02:40:49;;;;;;;6.47;3.55;;;15.80;99.90;;;;;;4141041;28;20704;-66
2022/06/08 02:42:59;;;;;;;5.65;3.40;;;15.90;99.90;;;;;;4140529;28;20046;-66
2022/06/08 02:45:06;;;;;;;5.43;2.83;;;16.00;99.90;;;;;;4140477;28;20086;-66
2022/06/08 02:47:14;;;;;;;6.25;3.85;;;16.10;99.90;;;;;;4140382;28;20030;-64
2022/06/08 02:49:16;;;;;;;6.43;3.13;;;16.30;99.90;;;;;;4140319;28;20084;-64
2022/06/08 02:51:27;;;;;;;6.57;3.20;;;16.50;99.90;;;;;;4140702;28;20486;-64
2022/06/08 02:53:31;;;;;;;5.55;3.30;;;16.70;99.90;;;;;;4139790;28;20506;-66
2022/06/08 02:55:40;;;;;;;3.33;2.65;;;16.90;99.90;;;;;;4140242;28;20544;-64
2022/06/08 02:58:14;;;;;;;4.55;2.50;;;17.20;99.90;;;;;;4140083;28;20077;-64
2022/06/08 03:00:21;;;;;;;9.95;2.90;;;17.50;99.90;;;;;;4138214;28;21029;-65
2022/06/08 03:02:46;;;;;;;8.93;2.53;;;17.80;99.90;;;;;;4140200;28;20463;-64
2022/06/08 03:04:56;;;;;;;10.25;3.38;;;18.20;99.90;;;;;;4138474;28;20037;-65
2022/06/08 03:07:07;;;;;;;6.78;3.58;;;18.50;99.90;;;;;;4140833;28;20045;-65
2022/06/08 03:09:12;;;;;;;7.10;3.42;;;18.70;99.90;;;;;;4139887;28;20049;-64
2022/06/08 03:11:15;;;;;;;7.18;3.45;;;19.00;99.90;;;;;;4139796;28;20422;-64
2022/06/08 03:13:21;;;;;;;13.95;3.60;;;19.30;99.90;;;;;;4140680;28;20034;-64
2022/06/08 03:15:24;;;;;;;8.82;3.33;;;19.50;99.90;;;;;;4140214;28;20054;-64
2022/06/08 03:17:29;;;;;;;8.30;3.63;;;19.70;99.90;;;;;;4139524;28;20072;-66
2022/06/08 03:19:32;;;;;;;11.93;3.95;;;20.00;99.90;;;;;;4139895;28;20065;-66
2022/06/08 03:21:35;;;;;;;11.85;4.45;;;20.20;99.90;;;;;;4140354;28;20132;-64
2022/06/08 03:23:36;;;;;;;8.65;3.60;;;20.50;99.90;;;;;;4138956;28;20046;-65
2022/06/08 03:25:37;;;;;;;8.10;3.78;;;20.80;99.90;;;;;;4171792;28;20091;-64
2022/06/08 03:27:38;;;;;;;7.10;3.67;;;21.10;99.90;;;;;;4139194;28;20065;-66
2022/06/08 03:29:39;;;;;;;6.95;3.33;;;21.30;99.90;;;;;;4140685;28;20030;-65
2022/06/08 03:31:41;;;;;;;9.88;3.90;;;21.60;99.90;;;;;;4139126;28;20026;-64
2022/06/08 03:33:42;;;;;;;10.05;3.67;;;21.90;99.90;;;;;;4139755;28;20045;-65
2022/06/08 03:35:43;;;;;;;6.40;3.50;;;22.20;99.90;;;;;;4138364;28;20034;-67
2022/06/08 03:37:44;;;;;;;7.03;3.20;;;22.50;99.90;;;;;;4139340;28;20046;-65
2022/06/08 03:39:45;;;;;;;9.88;3.83;;;22.60;99.90;;;;;;4137483;28;20152;-65
2022/06/08 03:41:47;;;;;;;10.23;3.40;;;22.70;99.90;;;;;;4137945;28;20379;-65
2022/06/08 03:43:48;;;;;;;5.95;3.38;;;22.70;99.90;;;;;;4139265;28;20096;-65
2022/06/08 03:45:53;;;;;;;9.95;3.50;;;22.80;99.90;;;;;;4139214;28;20455;-65
2022/06/08 03:47:54;;;;;;;7.88;5.25;;;23.00;99.90;;;;;;4139852;28;20046;-63
2022/06/08 03:49:59;;;;;;;6.15;3.35;;;23.30;99.50;;;;;;4139590;28;20030;-64
2022/06/08 03:52:04;;;;;;;6.47;3.53;;;23.10;99.30;;;;;;4139970;28;20030;-63
2022/06/08 03:54:13;;;;;;;6.53;3.70;;;23.00;99.30;;;;;;4138787;28;20092;-64
2022/06/08 03:56:17;;;;;;;6.88;3.28;;;23.20;99.20;;;;;;4139206;28;20049;-64
2022/06/08 03:58:20;;;;;;;6.22;3.55;;;23.40;98.80;;;;;;4139124;28;20061;-63
2022/06/08 04:00:23;;;;;;;5.75;3.30;;;23.80;98.40;;;;;;4138781;28;20038;-66
2022/06/08 04:02:25;;;;;;;11.32;3.97;;;24.10;97.90;;;;;;4138384;28;20494;-64
2022/06/08 04:04:26;;;;;;;7.85;3.88;;;24.60;97.40;;;;;;4140357;28;20030;-64
2022/06/08 04:06:27;;;;;;;8.48;3.67;;;24.80;96.80;;;;;;4139097;28;20042;-64
2022/06/08 04:08:29;;;;;;;4.43;3.20;;;25.00;96.60;;;;;;4140242;28;20103;-65
2022/06/08 04:10:31;;;;;;;9.27;3.60;;;25.10;95.90;;;;;;4138936;28;20033;-64
2022/06/08 04:12:33;;;;;;;6.97;3.60;;;25.50;95.60;;;;;;4137513;28;20112;-65
2022/06/08 04:14:34;;;;;;;8.55;3.53;;;25.90;94.90;;;;;;4139027;28;20042;-65
2022/06/08 04:16:35;;;;;;;8.95;3.17;;;26.10;94.10;;;;;;4139088;28;20029;-65
2022/06/08 04:18:37;;;;;;;7.40;3.50;;;;;;;;;;4138680;28;20018;-68
2022/06/08 04:20:39;;;;;;;7.47;2.70;;;;;;;;;;4138016;28;20033;-64
2022/06/08 04:22:40;;;;;;;3.83;2.22;;;26.30;93.60;;;;;;4139433;28;20029;-63
2022/06/08 04:24:42;;;;;;;5.40;2.28;;;27.10;91.10;;;;;;4139502;28;20096;-67
2022/06/08 04:26:43;;;;;;;4.78;2.50;;;27.10;90.50;;;;;;4138673;28;20144;-65
2022/06/08 04:28:45;;;;;;;8.98;2.88;;;26.50;90.20;;;;;;4138754;28;20029;-64
2022/06/08 04:30:47;;;;;;;6.00;2.72;;;25.80;90.40;;;;;;4139254;28;20417;-64
2022/06/08 04:32:48;;;;;;;10.18;3.10;;;25.40;90.80;;;;;;4138375;28;20018;-64
2022/06/08 04:34:49;;;;;;;5.28;2.80;;;25.40;91.00;;;;;;4139275;28;20083;-64
2022/06/08 04:36:50;;;;;;;9.43;2.80;;;25.50;90.80;;;;;;4138775;28;20026;-63
2022/06/08 04:38:51;;;;;;;7.60;2.58;;;26.00;90.60;;;;;;4139701;28;20096;-66
2022/06/08 04:40:52;;;;;;;6.32;3.40;;;26.00;90.00;;;;;;4128465;28;20110;-65
2022/06/08 04:42:54;;;;;;;5.85;3.05;;;26.00;89.80;;;;;;4123318;28;20038;-66
2022/06/08 04:44:56;;;;;;;5.97;3.08;;;26.10;89.40;;;;;;4122648;28;20038;-67
2022/06/08 04:46:57;;;;;;;6.20;2.72;;;26.20;89.00;;;;;;4122435;28;20472;-67
2022/06/08 04:48:58;;;;;;;3.85;2.50;;;26.50;89.20;;;;;;4129731;28;20104;-64
2022/06/08 04:51:01;;;;;;;6.05;2.80;;;26.60;87.80;;;;;;4139035;28;20030;-64
2022/06/08 04:53:03;;;;;;;3.78;2.20;;;26.40;88.00;;;;;;4139046;28;20573;-66
2022/06/08 04:55:07;;;;;;;8.75;2.70;;;26.40;87.80;;;;;;4138865;28;20041;-65
2022/06/08 04:57:09;;;;;;;3.75;2.67;;;26.10;88.00;;;;;;4138605;28;20108;-63
2022/06/08 04:59:10;;;;;;;3.17;2.30;;;26.10;87.80;;;;;;4138247;28;20157;-65
2022/06/08 05:01:11;;;;;;;5.60;2.53;;;25.70;87.90;;;;;;4137377;28;20026;-63
2022/06/08 05:03:12;;;;;;;3.80;2.40;;;25.30;88.60;;;;;;4137645;28;20482;-64
2022/06/08 05:05:21;;;;;;;4.45;2.38;;;25.10;88.90;;;;;;4137307;28;20108;-64
2022/06/08 05:07:22;;;;;;;4.93;2.10;;;25.10;88.90;;;;;;4137881;28;20030;-64
2022/06/08 05:09:23;;;;;;;6.85;3.20;;;25.50;88.60;;;;;;4139196;28;20038;-64
2022/06/08 05:11:24;;;;;;;3.45;2.08;;;25.40;88.40;;;;;;4137878;28;20484;-64
2022/06/08 05:13:25;;;;;;;5.88;2.17;;;25.00;88.60;;;;;;4139533;28;20535;-64
2022/06/08 05:15:34;;;;;;;5.15;2.22;;;24.90;89.10;;;;;;4138584;28;20034;-64
2022/06/08 05:17:36;;;;;;;2.88;1.90;;;24.70;89.30;;;;;;4138972;28;20037;-65
2022/06/08 05:19:38;;;;;;;4.30;1.95;;;24.30;90.10;;;;;;4138141;28;20108;-64
2022/06/08 05:21:40;;;;;;;4.10;2.13;;;24.50;90.10;;;;;;4139191;28;20058;-64
2022/06/08 05:23:43;;;;;;;6.40;2.47;;;24.60;90.00;;;;;;4140315;28;20042;-64
2022/06/08 05:25:44;;;;;;;5.72;2.80;;;24.70;90.00;;;;;;4141600;28;20026;-64
2022/06/08 05:27:45;;;;;;;4.20;2.53;;;24.80;89.80;;;;;;4141224;28;20617;-65
2022/06/08 05:29:47;;;;;;;5.63;2.30;;;24.30;90.20;;;;;;4142342;28;20108;-64
2022/06/08 05:31:48;;;;;;;4.60;2.13;;;24.30;90.50;;;;;;4141644;28;20045;-63
2022/06/08 05:33:49;;;;;;;3.83;2.10;;;24.30;90.50;;;;;;4141369;28;20445;-64
2022/06/08 05:35:50;;;;;;;5.10;2.92;;;24.30;90.50;;;;;;4141448;28;20099;-64
2022/06/08 05:37:53;;;;;;;2.75;2.42;;;24.20;90.70;;;;;;4141450;28;20918;-65
2022/06/08 05:39:54;;;;;;;6.90;2.92;;;24.00;90.90;;;;;;4141685;28;20038;-64
2022/06/08 05:41:55;;;;;;;7.88;2.70;;;23.80;91.10;;;;;;4141244;28;20080;-64
2022/06/08 05:43:56;;;;;;;4.00;2.72;;;23.80;91.40;;;;;;4141422;28;20557;-63
2022/06/08 05:45:57;;;;;;;3.08;2.38;;;24.20;91.20;;;;;;4140124;28;20096;-64
2022/06/08 05:47:59;;;;;;;3.92;2.55;;;24.50;90.80;;;;;;4141355;28;20173;-64
2022/06/08 05:50:00;;;;;;;5.60;2.80;;;25.00;90.50;;;;;;4140372;28;20022;-64
2022/06/08 05:52:03;;;;;;;5.97;2.45;;;24.90;90.70;;;;;;4141377;28;20094;-64
2022/06/08 05:54:04;;;;;;;5.15;2.97;;;24.30;90.90;;;;;;4140456;28;20100;-64
2022/06/08 05:56:06;;;;;;;10.13;3.40;;;24.00;91.30;;;;;;4140882;28;20030;-64
2022/06/08 05:58:07;;;;;;;9.15;3.22;;;24.10;91.50;;;;;;4141244;28;20030;-65
2022/06/08 06:00:12;;;;;;;11.07;3.40;;;23.90;91.60;;;;;;4141452;28;20042;-63
2022/06/08 06:02:14;;;;;;;10.23;3.38;;;23.40;92.30;;;;;;4140728;28;20445;-64
2022/06/08 06:04:15;;;;;;;7.63;3.70;;;23.60;92.30;;;;;;4141095;28;20034;-63
2022/06/08 06:06:17;;;;;;;7.95;4.00;;;23.90;92.10;;;;;;4141193;28;20092;-62
2022/06/08 06:08:18;;;;;;;6.63;3.45;;;23.90;92.00;;;;;;4141060;28;20099;-64
2022/06/08 06:10:20;;;;;;;7.00;2.60;;;23.70;92.10;;;;;;4141452;28;20029;-64
2022/06/08 06:12:21;;;;;;;4.13;2.63;;;23.50;92.50;;;;;;4140605;28;20483;-63
2022/06/08 06:14:22;;;;;;;6.70;3.15;;;23.50;92.50;;;;;;4141047;28;20045;-63
2022/06/08 06:16:25;;;;;;;5.35;2.15;;;24.00;92.30;;;;;;4140142;28;20088;-63
2022/06/08 06:18:26;;;;;;;8.23;2.13;;;24.50;91.70;;;;;;4141344;28;20084;-64
2022/06/08 06:20:27;;;;;;;2.50;2.05;;;24.60;91.30;;;;;;4140427;28;20093;-63
2022/06/08 06:22:32;;;;;;;3.53;1.90;;;24.30;91.10;;;;;;4141524;28;20038;-63
2022/06/08 06:24:33;;;;;;;3.92;1.70;;;24.10;91.60;;;;;;4139896;28;20107;-64
2022/06/08 06:26:34;;;;;;;2.88;1.35;;;24.10;91.00;;;;;;4140998;28;20049;-64
2022/06/08 06:28:35;;;;;;;1.50;1.20;;;24.10;90.50;;;;;;4140378;28;20034;-64
2022/06/08 06:30:36;;;;;;;2.53;1.23;;;23.90;90.20;;;;;;4140780;28;20042;-64
2022/06/08 06:32:39;;;;;;;1.08;1.00;;;23.80;90.40;;;;;;4140504;28;20500;-64
2022/06/08 06:34:40;;;;;;;2.53;1.40;;;23.90;90.00;;;;;;4139233;28;20052;-64
2022/06/08 06:36:41;;;;;;;3.60;1.42;;;23.80;89.80;;;;;;4140918;28;20030;-65
2022/06/08 06:38:42;;;;;;;5.07;1.55;;;23.60;90.10;;;;;;4140973;28;20092;-64
2022/06/08 06:40:43;;;;;;;5.43;1.60;;;23.70;90.20;;;;;;4141273;28;20025;-65
2022/06/08 06:42:46;;;;;;;2.67;1.30;;;23.70;90.20;;;;;;4140415;28;20033;-65
2022/06/08 06:44:47;;;;;;;2.60;1.73;;;23.80;90.10;;;;;;4141447;28;20473;-64
2022/06/08 06:46:48;;;;;;;3.60;1.67;;;23.80;89.90;;;;;;4139928;28;20088;-65
2022/06/08 06:48:49;;;;;;;3.95;1.27;;;23.80;90.10;;;;;;4141437;28;20050;-65
2022/06/08 06:50:51;;;;;;;4.82;2.15;;;23.90;90.10;;;;;;4139819;28;20473;-64
2022/06/08 06:52:52;;;;;;;2.15;1.27;;;23.80;90.30;;;;;;4141036;28;20437;-65
2022/06/08 06:54:53;;;;;;;3.58;1.35;;;23.60;90.00;;;;;;4139923;28;20498;-65
2022/06/08 06:56:55;;;;;;;1.13;1.02;;;23.50;90.10;;;;;;4139510;28;20045;-64
2022/06/08 06:58:56;;;;;;;2.97;1.27;;;23.40;90.00;;;;;;4140134;28;20042;-65
2022/06/08 07:00:57;;;;;;;2.70;1.08;;;23.40;90.00;;;;;;4140832;28;20041;-64
2022/06/08 07:02:58;;;;;;;1.80;1.25;;;23.60;89.70;;;;;;4140099;28;20611;-66
2022/06/08 07:04:59;;;;;;;1.40;0.98;;;23.60;89.40;;;;;;4140549;28;20064;-64
2022/06/08 07:07:00;;;;;;;3.20;1.58;;;23.60;89.20;;;;;;4139794;28;20140;-64
2022/06/08 07:09:02;;;;;;;2.40;1.95;;;23.60;89.40;;;;;;4140340;28;20021;-63
2022/06/08 07:13:24;;;;;;;4.90;1.40;;;23.70;88.90;;;;;;4139895;28;20023;-65
2022/06/08 07:15:26;;;;;;;5.88;1.58;;;23.80;88.80;;;;;;4140130;28;20099;-63
2022/06/08 07:17:27;;;;;;;3.72;1.05;;;23.70;88.90;;;;;;4139791;28;20045;-63
2022/06/08 07:19:29;;;;;;;5.97;1.30;;;23.70;89.20;;;;;;4139800;28;20124;-63
2022/06/08 07:21:30;;;;;;;1.45;1.17;;;23.90;88.70;;;;;;4140046;28;20045;-64
2022/06/08 07:23:31;;;;;;;6.55;1.20;;;24.00;88.60;;;;;;4140218;28;20084;-63
2022/06/08 07:25:32;;;;;;;2.80;1.50;;;24.10;88.30;;;;;;4139590;28;20033;-63
2022/06/08 07:27:35;;;;;;;1.98;1.02;;;24.20;87.50;;;;;;4138888;28;20034;-63
2022/06/08 07:29:36;;;;;;;1.42;1.23;;;24.20;87.00;;;;;;4139484;28;20493;-63
2022/06/08 07:31:37;;;;;;;2.67;1.30;;;24.20;86.60;;;;;;4140215;28;20390;-63
2022/06/08 07:33:40;;;;;;;2.35;1.42;;;24.20;86.20;;;;;;4170432;28;20067;-63
2022/06/08 07:35:41;;;;;;;2.78;1.38;;;24.30;86.80;;;;;;4140210;28;20111;-63
2022/06/08 07:37:42;;;;;;;2.80;1.60;;;24.50;86.60;;;;;;4139461;28;20026;-63
2022/06/08 07:39:44;;;;;;;5.35;1.65;;;24.50;86.90;;;;;;4139965;28;20037;-63
2022/06/08 07:41:47;;;;;;;3.80;1.40;;;24.60;86.70;;;;;;4139327;28;20042;-63
2022/06/08 07:43:48;;;;;;;5.65;1.67;;;24.70;86.30;;;;;;4139729;28;20018;-65
2022/06/08 07:45:50;;;;;;;3.13;1.40;;;24.80;86.40;;;;;;4139670;28;20046;-63
2022/06/08 07:50:11;;;;;;;2.25;1.60;;;25.00;85.00;;;;;;4139718;28;20034;-64
2022/06/08 07:52:16;;;;;;;1.73;1.38;;;25.10;84.60;;;;;;4139955;28;20479;-64
2022/06/08 07:54:17;;;;;;;5.47;1.58;;;25.10;85.10;;;;;;4139789;28;20037;-65
2022/06/08 07:56:18;;;;;;;2.10;1.02;;;25.40;85.30;;;;;;4138723;28;20084;-64
2022/06/08 07:58:19;;;;;;;10.70;6.35;;;25.60;85.20;;;;;;4139393;28;20045;-63
2022/06/08 08:00:21;;;;;;;3.47;1.13;;;26.00;84.80;;;;;;4138747;28;20083;-64
2022/06/08 08:02:22;;;;;;;2.63;1.60;;;26.00;84.20;;;;;;4140070;28;20490;-64
2022/06/08 08:04:24;;;;;;;1.75;1.40;;;26.10;84.30;;;;;;4138703;28;20104;-64
2022/06/08 08:06:25;;;;;;;6.53;1.80;;;26.30;83.10;;;;;;4139688;28;20076;-63
2022/06/08 08:08:26;;;;;;;4.68;1.45;;;25.90;80.90;;;;;;4138851;28;20053;-65
2022/06/08 08:10:27;;;;;;;3.20;1.63;;;25.50;80.90;;;;;;4140073;28;20030;-64
2022/06/08 08:12:29;;;;;;;7.65;2.45;;;25.50;80.90;;;;;;4138954;28;20034;-64
2022/06/08 08:14:33;;;;;;;4.65;1.42;;;25.30;81.40;;;;;;4139029;28;20095;-63
2022/06/08 08:16:34;;;;;;;2.63;1.40;;;25.40;81.30;;;;;;4139307;28;20076;-64
2022/06/08 08:18:35;;;;;;;6.38;1.55;;;25.50;80.70;;;;;;4139525;28;20485;-63
2022/06/08 08:20:37;;;;;;;1.63;1.38;;;25.40;80.70;;;;;;4138136;28;20080;-64
2022/06/08 08:22:38;;;;;;;3.17;1.13;;;25.60;80.50;;;;;;4138822;28;20096;-64
2022/06/08 08:24:40;;;;;;;3.83;1.25;;;25.60;80.10;;;;;;4139710;28;20078;-64
2022/06/08 08:26:44;;;;;;;2.00;1.55;;;25.50;80.40;;;;;;4139048;28;20100;-63
2022/06/08 08:28:45;;;;;;;3.78;1.33;;;25.60;80.80;;;;;;4139016;28;20030;-64
2022/06/08 08:30:46;;;;;;;3.22;1.45;;;25.60;80.10;;;;;;4137996;28;20493;-63
2022/06/08 08:32:49;;;;;;;6.13;1.48;;;25.50;79.70;;;;;;4139389;28;20092;-63
2022/06/08 08:34:50;;;;;;;1.48;1.23;;;25.40;79.80;;;;;;4138248;28;20045;-64
2022/06/08 08:36:51;;;;;;;3.55;1.45;;;25.50;80.00;;;;;;4139522;28;20038;-63
2022/06/08 08:38:53;;;;;;;3.08;1.38;;;25.50;79.30;;;;;;4138636;28;20081;-64
2022/06/08 08:41:01;;;;;;;1.73;1.17;;;25.50;78.90;;;;;;4139920;28;20042;-63
2022/06/08 08:43:02;;;;;;;3.97;1.63;;;25.30;78.10;;;;;;4138558;28;20092;-63
2022/06/08 08:45:11;;;;;;;2.30;1.23;;;25.20;78.10;;;;;;4138903;28;20029;-64
2022/06/08 08:47:30;;;;;;;2.53;1.45;;;25.10;78.10;;;;;;4138756;28;20042;-63
2022/06/08 08:49:33;;;;;;;3.10;1.38;;;25.10;77.80;;;;;;4138340;28;20169;-64
2022/06/08 08:51:48;;;;;;;4.43;1.60;;;25.10;78.40;;;;;;4138156;28;20557;-64
2022/06/08 08:54:28;;;;;;;2.55;1.10;;;25.10;78.60;;;;;;4139515;28;20100;-64
2022/06/08 08:56:40;;;;;;;2.67;1.90;;;25.10;77.80;;;;;;4137599;28;20410;-63
2022/06/08 08:58:43;;;;;;;7.10;1.55;;;25.10;78.00;;;;;;4140678;28;20034;-64
2022/06/08 09:00:58;;;;;;;4.22;1.38;;;25.10;77.90;;;;;;4141315;28;20030;-64
2022/06/08 09:03:15;;;;;;;2.15;1.35;;;25.10;78.80;;;;;;4142572;28;20026;-64
2022/06/08 09:05:22;;;;;;;4.28;1.17;;;25.20;77.30;;;;;;4141406;28;20030;-65
2022/06/08 09:07:23;;;;;;;5.00;1.30;;;25.30;77.00;;;;;;4141863;28;20746;-65
2022/06/08 09:09:33;;;;;;;6.00;1.30;;;25.30;76.70;;;;;;4140715;28;20034;-64
2022/06/08 09:11:38;;;;;;;1.92;1.20;;;25.20;76.20;;;;;;4142358;28;20053;-64
2022/06/08 09:13:50;;;;;;;2.80;1.63;;;25.20;77.00;;;;;;4140766;28;20034;-65
2022/06/08 09:15:56;;;;;;;2.05;1.45;;;25.20;77.20;;;;;;4143567;28;20058;-65
2022/06/08 09:17:57;;;;;;;2.85;1.10;;;25.20;77.40;;;;;;4141744;28;20061;-65
2022/06/08 09:20:01;;;;;;;2.60;1.50;;;25.20;77.20;;;;;;4142435;28;20080;-64
2022/06/08 09:22:02;;;;;;;1.80;1.20;;;25.20;75.90;;;;;;4141242;28;20026;-63
2022/06/08 09:24:15;;;;;;;1.83;1.00;;;25.20;76.20;;;;;;4141414;28;20026;-65
2022/06/08 09:26:29;;;;;;;3.22;1.60;;;25.20;76.80;;;;;;4140934;28;20088;-64
2022/06/08 09:28:32;;;;;;;6.22;1.30;;;25.10;77.80;;;;;;4141962;28;20030;-64
2022/06/08 09:30:48;;;;;;;7.07;1.75;;;25.20;77.40;;;;;;4140920;28;20061;-64
2022/06/08 09:32:59;;;;;;;2.95;1.23;;;25.30;77.00;;;;;;4141962;28;20490;-65
2022/06/08 09:35:20;;;;;;;4.72;1.27;;;25.50;76.50;;;;;;4141310;28;20050;-64
2022/06/08 09:37:26;;;;;;;6.22;1.83;;;25.50;76.50;;;;;;4142157;28;20532;-64
2022/06/08 09:39:28;;;;;;;8.52;2.08;;;25.50;76.10;;;;;;4140859;28;20142;-63
2022/06/08 09:41:32;;;;;;;4.75;1.60;;;25.50;76.20;;;;;;4142201;28;20100;-64
2022/06/08 09:44:04;;;;;;;2.10;1.50;;;25.50;76.10;;;;;;4141044;28;20034;-63
2022/06/08 09:51:50;;;;;;;1.30;1.20;;;25.40;74.70;;;;;;4140987;28;20409;-63
2022/06/08 09:54:02;;;;;;;1.67;1.00;;;25.30;73.00;;;;;;4140838;28;20375;-64
2022/06/08 09:56:25;;;;;;;2.17;1.20;;;25.30;73.50;;;;;;4140697;28;20057;-64
2022/06/08 09:58:52;;;;;;;1.42;1.00;;;25.30;73.30;;;;;;4141098;28;20029;-64
2022/06/08 10:01:18;;;;;;;2.35;1.30;;;25.30;73.80;;;;;;4140358;28;20042;-63
2022/06/08 10:03:33;;;;;;;5.40;1.40;;;25.40;73.40;;;;;;4139911;28;20112;-64
2022/06/08 10:06:22;;;;;;;4.07;1.40;;;25.30;72.60;;;;;;4140345;28;20046;-64
2022/06/08 10:08:33;;;;;;;2.20;1.30;;;25.20;73.10;;;;;;4138469;28;20060;-63
2022/06/08 10:10:43;;;;;;;3.85;1.45;;;25.30;73.20;;;;;;4138905;28;20026;-64
2022/06/08 10:12:57;;;;;;;2.47;1.13;;;25.40;72.90;;;;;;4137889;28;20084;-64
2022/06/08 10:15:24;;;;;;;3.65;1.00;;;25.50;74.00;;;;;;4140591;28;20041;-64
2022/06/08 10:17:50;;;;;;;3.55;1.30;;;25.70;71.70;;;;;;4139605;28;20096;-64
2022/06/08 10:20:12;;;;;;;2.42;1.13;;;25.60;72.50;;;;;;4140747;28;20123;-64
2022/06/08 10:22:13;;;;;;;1.83;1.02;;;25.60;72.80;;;;;;4140319;28;20030;-64
2022/06/08 10:24:30;;;;;;;4.43;1.40;;;25.60;73.50;;;;;;4141361;28;20084;-65
2022/06/08 10:26:39;;;;;;;4.65;1.10;;;25.60;73.80;;;;;;4140094;28;20092;-64
2022/06/08 10:28:49;;;;;;;2.43;1.10;;;25.50;72.40;;;;;;4140657;28;20026;-63
2022/06/08 10:31:03;;;;;;;5.72;1.10;;;25.50;73.20;;;;;;4140447;28;20111;-64
2022/06/08 10:33:12;;;;;;;8.93;1.75;;;25.50;73.00;;;;;;4140743;28;20046;-64
2022/06/08 10:35:53;;;;;;;3.47;1.02;;;25.50;74.60;;;;;;4139732;28;20038;-64
2022/06/08 10:37:55;;;;;;;2.65;1.17;;;25.60;74.20;;;;;;4140366;28;20030;-64
2022/06/08 10:39:57;;;;;;;1.38;0.98;;;25.80;74.00;;;;;;4139594;28;20065;-64
2022/06/08 10:42:39;;;;;;;4.32;1.23;;;25.70;71.90;;;;;;4140942;28;20076;-64
2022/06/08 10:44:43;;;;;;;2.88;0.93;;;25.80;72.20;;;;;;4140156;28;20038;-63
2022/06/08 10:46:47;;;;;;;2.92;0.93;;;25.80;72.30;;;;;;4140488;28;20049;-63
2022/06/08 10:48:50;;;;;;;4.30;1.10;;;25.90;71.80;;;;;;4139749;28;20038;-63
2022/06/08 10:51:22;;;;;;;1.98;1.10;;;25.90;71.90;;;;;;4140956;28;20544;-63
2022/06/08 10:55:46;;;;;;;1.25;1.08;;;26.00;72.00;;;;;;4139522;28;20042;-64
2022/06/08 10:57:50;;;;;;;2.03;1.00;;;26.00;72.00;;;;;;4139411;28;20099;-63
2022/06/08 11:00:20;;;;;;;1.25;1.10;;;26.00;72.40;;;;;;4140680;28;20057;-64
2022/06/08 11:02:33;;;;;;;3.33;1.23;;;26.20;73.40;;;;;;4139172;28;20092;-64
2022/06/08 11:04:35;;;;;;;4.05;1.08;;;26.30;73.60;;;;;;4140497;28;20049;-64
2022/06/08 11:06:51;;;;;;;5.05;0.82;;;26.40;72.90;;;;;;4139481;28;20096;-64
2022/06/08 11:08:52;;;;;;;4.05;1.10;;;26.50;71.60;;;;;;4139304;28;20030;-63
2022/06/08 11:10:58;;;;;;;3.92;0.88;;;26.40;72.30;;;;;;4138631;28;20470;-63